Latest Weather Observations for Cape Grim

IDT60801

Issued at 8:01 am EDT Wednesday 21 October 2020 (issued every 10 minutes, with the page automatically refreshed every 10 minutes)

About weather observations | Map of weather stations | Latest weather observations for TAS | Other Formats
Station Details ID: 091331 Name: CAPE GRIM Lat: -40.68 Lon: 144.69 Height: 86.0 m
Data from the previous 72 hours. | See also: Recent months at Cape Grim
Date/Time
EDT
Temp
°C
App
Temp
°C
Dew
Point
°C
Rel
Hum
%
Delta-T
°C
Wind Press
QNH
hPa
Press
MSL
hPa
Rain since
9am
mm
Dir  Spd
km/h
Gust
km/h
Spd
kts
Gust
kts
21/08:00am 10.5 8.5 8.8 89 0.8 S 9 13 5 7 1016.4 1016.5 0.0
21/07:30am 9.8 8.4 8.9 94 0.4 S 6 9 3 5 1016.3 1016.4 0.0
21/07:00am 9.6 8.2 8.7 94 0.4 SSW 6 9 3 5 1016.1 1016.2 0.0
21/06:30am 9.4 6.6 8.5 94 0.4 S 13 17 7 9 1015.9 1016.0 0.0
21/06:00am 10.2 7.4 8.6 90 0.8 SW 13 20 7 11 1015.6 1015.7 0.0
21/05:30am 10.7 9.0 8.5 86 1.1 WSW 7 11 4 6 1015.4 1015.5 0.0
21/05:00am 10.6 8.9 8.5 87 1.0 WSW 7 13 4 7 1015.4 1015.5 0.0
21/04:30am 10.7 8.6 8.1 84 1.3 WSW 9 15 5 8 1015.5 1015.6 0.0
21/04:00am 10.6 7.5 8.7 88 0.9 SW 15 20 8 11 1015.6 1015.7 0.0
21/03:30am 10.5 8.5 8.6 88 0.9 W 9 11 5 6 1015.7 1015.8 0.0
21/03:00am 10.4 8.4 8.5 88 0.9 W 9 15 5 8 1015.8 1015.9 0.0
21/02:30am 10.3 8.0 8.9 91 0.7 W 11 15 6 8 1016.1 1016.2 0.0
21/02:00am 10.2 7.5 9.0 92 0.6 W 13 19 7 10 1016.3 1016.4 0.0
21/01:30am 10.7 8.3 8.6 87 1.0 W 11 15 6 8 1016.6 1016.7 0.0
21/01:12am 10.6 8.6 8.5 87 1.0 WSW 9 19 5 10 1016.7 1016.8 0.0
21/01:00am 10.5 8.5 8.6 88 0.9 WSW 9 15 5 8 1016.7 1016.8 0.0
21/12:38am 10.4 8.4 8.5 88 0.9 WSW 9 13 5 7 1016.8 1016.9 0.0
21/12:30am 10.4 8.4 8.5 88 0.9 WSW 9 13 5 7 1016.7 1016.8 0.0
21/12:21am 10.3 8.6 8.4 88 0.9 WSW 7 13 4 7 1016.7 1016.8 0.0
21/12:00am 10.5 8.4 8.4 87 1.0 WSW 9 15 5 8 1016.8 1016.9 0.0
 
Date/Time
EDT
Temp
°C
App
Temp
°C
Dew
Point
°C
Rel
Hum
%
Delta-T
°C
Wind Press
QNH
hPa
Press
MSL
hPa
Rain since
9am
mm
Dir  Spd
km/h
Gust
km/h
Spd
kts
Gust
kts
20/11:44pm 10.5 8.4 8.4 87 1.0 SW 9 15 5 8 1017.0 1017.1 0.0
20/11:40pm 10.4 7.9 8.3 87 1.0 SW 11 15 6 8 1017.1 1017.2 0.0
20/11:30pm 10.5 8.4 8.4 87 1.0 WSW 9 13 5 7 1017.2 1017.3 0.0
20/11:20pm 10.6 8.9 8.5 87 1.0 SW 7 15 4 8 1017.2 1017.3 0.0
20/11:00pm 10.5 8.0 8.3 86 1.1 SW 11 15 6 8 1017.2 1017.3 0.0
20/10:30pm 10.5 8.7 8.1 85 1.2 WSW 7 13 4 7 1017.4 1017.5 0.0
20/10:00pm 10.5 8.4 8.1 85 1.2 W 9 15 5 8 1017.6 1017.7 0.0
20/09:30pm 10.6 8.2 8.5 87 1.0 WSW 11 19 6 10 1017.8 1017.8 0.0
20/09:00pm 10.6 8.5 8.4 86 1.1 WSW 9 17 5 9 1017.5 1017.6 0.0
20/08:30pm 10.5 8.1 8.6 88 0.9 W 11 17 6 9 1017.4 1017.5 0.0
20/08:00pm 10.3 8.2 8.4 88 0.9 WSW 9 15 5 8 1017.1 1017.2 0.0
20/07:30pm 10.3 8.2 8.4 88 0.9 WSW 9 15 5 8 1017.0 1017.1 0.0
20/07:00pm 10.7 7.9 8.6 87 1.0 WSW 13 20 7 11 1016.8 1016.9 0.0
20/06:30pm 10.9 7.5 9.0 88 0.9 W 17 22 9 12 1016.8 1016.9 0.0
20/06:00pm 11.7 8.4 8.2 79 1.7 W 15 20 8 11 1016.9 1017.0 0.0
20/05:30pm 12.2 9.3 8.3 77 1.9 W 13 20 7 11 1017.0 1017.1 0.0
20/05:00pm 12.3 9.4 8.2 76 2.0 W 13 22 7 12 1017.0 1017.1 0.0
20/04:30pm 12.7 8.9 9.2 79 1.8 W 19 26 10 14 1017.0 1017.1 0.0
20/04:00pm 13.2 9.7 8.9 75 2.2 W 17 20 9 11 1017.1 1017.2 0.0
20/03:30pm 12.7 9.8 8.2 74 2.2 W 13 17 7 9 1017.1 1017.2 0.0
20/03:00pm 12.9 10.5 8.8 76 2.1 WSW 11 17 6 9 1017.5 1017.6 0.0
20/02:30pm 12.8 10.1 9.1 78 1.9 WSW 13 19 7 10 1017.9 1017.9 0.0
20/02:00pm 12.5 9.9 9.3 81 1.6 WSW 13 17 7 9 1018.2 1018.2 0.0
20/01:30pm 12.6 10.3 9.1 79 1.8 WSW 11 17 6 9 1018.5 1018.5 0.0
20/01:00pm 12.0 9.7 9.0 82 1.5 WSW 11 17 6 9 1018.8 1018.8 0.0
20/12:30pm 11.5 7.9 8.4 81 1.5 W 17 26 9 14 1018.9 1018.9 0.0
20/12:00pm 12.7 9.3 9.3 80 1.7 WNW 17 24 9 13 1019.0 1019.0 0.0
20/11:30am 11.9 8.9 7.8 76 2.0 W 13 22 7 12 1019.0 1019.0 0.0
20/11:00am 12.0 8.6 7.7 75 2.1 W 15 20 8 11 1019.1 1019.1 0.0
20/10:30am 12.0 9.1 8.1 77 1.9 W 13 19 7 10 1019.0 1019.0 0.0
20/10:00am 11.8 9.0 6.9 72 2.3 WSW 11 19 6 10 1018.8 1018.8 0.0
20/09:30am 11.7 8.6 7.2 74 2.2 SW 13 19 7 10 1018.5 1018.5 0.0
20/09:00am 11.4 7.9 7.1 75 2.1 SW 15 22 8 12 1018.5 1018.5 0.2
20/08:30am 11.0 7.4 6.9 76 2.0 SW 15 20 8 11 1018.5 1018.5 0.2
20/08:00am 10.8 6.3 6.9 77 1.9 SW 20 28 11 15 1018.3 1018.3 0.2
20/07:30am 10.5 6.6 7.2 80 1.6 WSW 17 26 9 14 1018.4 1018.4 0.2
20/07:00am 10.2 6.4 7.4 83 1.3 SW 17 24 9 13 1018.3 1018.3 0.2
20/06:30am 10.2 7.1 7.4 83 1.3 W 13 22 7 12 1018.0 1018.0 0.2
20/06:00am 10.2 7.1 7.1 81 1.5 W 13 20 7 11 1017.9 1017.9 0.2
20/05:30am 10.1 6.6 7.3 83 1.3 W 15 24 8 13 1017.8 1017.8 0.2
20/05:00am 10.2 6.7 7.1 81 1.5 WSW 15 24 8 13 1017.8 1017.8 0.2
20/04:30am 10.0 7.3 7.3 83 1.3 SW 11 17 6 9 1017.5 1017.6 0.2
20/04:00am 9.8 6.9 6.5 80 1.5 WSW 11 15 6 8 1017.5 1017.6 0.2
20/03:30am 9.9 5.8 6.4 79 1.6 SW 17 22 9 12 1017.5 1017.6 0.2
20/03:00am 10.2 6.9 6.5 78 1.7 WSW 13 20 7 11 1017.5 1017.6 0.2
20/02:30am 10.1 7.4 7.5 84 1.2 WSW 11 19 6 10 1017.8 1017.8 0.2
20/02:00am 10.1 7.1 7.7 85 1.2 SW 13 20 7 11 1018.1 1018.1 0.2
20/01:30am 10.1 7.0 7.3 83 1.3 SW 13 20 7 11 1018.3 1018.3 0.2
20/01:00am 10.4 6.2 7.3 81 1.5 SW 19 24 10 13 1018.4 1018.4 0.2
20/12:30am 10.0 5.4 6.7 80 1.6 SW 20 24 11 13 1018.5 1018.5 0.2
20/12:00am 10.3 6.0 6.8 79 1.7 SW 19 26 10 14 1018.6 1018.6 0.2
 
Date/Time
EDT
Temp
°C
App
Temp
°C
Dew
Point
°C
Rel
Hum
%
Delta-T
°C
Wind Press
QNH
hPa
Press
MSL
hPa
Rain since
9am
mm
Dir  Spd
km/h
Gust
km/h
Spd
kts
Gust
kts
19/11:30pm 10.4 5.1 6.9 79 1.7 SW 24 32 13 17 1018.6 1018.6 0.2
19/11:00pm 10.4 5.0 6.5 77 1.8 SW 24 30 13 16 1018.7 1018.7 0.2
19/10:30pm 10.5 4.9 7.0 79 1.7 SW 26 35 14 19 1018.9 1018.9 0.2
19/10:00pm 10.6 5.8 7.5 81 1.5 SW 22 30 12 16 1019.1 1019.1 0.2
19/09:30pm 10.3 4.7 7.0 80 1.6 SW 26 33 14 18 1019.2 1019.2 0.2
19/09:00pm 10.7 4.8 7.4 80 1.6 SW 28 35 15 19 1019.1 1019.1 0.2
19/08:30pm 10.5 4.8 6.8 78 1.8 SW 26 35 14 19 1018.8 1018.8 0.2
19/08:00pm 10.5 5.8 7.9 84 1.3 SW 22 33 12 18 1018.5 1018.5 0.2
19/07:30pm 10.4 4.9 7.5 82 1.4 SW 26 33 14 18 1018.5 1018.5 0.2
19/07:00pm 10.8 6.2 8.2 84 1.3 SW 22 33 12 18 1018.4 1018.4 0.2
19/06:30pm 11.2 6.5 7.9 80 1.6 SW 22 32 12 17 1018.2 1018.2 0.2
19/06:00pm 11.3 6.7 8.0 80 1.6 SW 22 30 12 16 1018.0 1018.0 0.2
19/05:30pm 11.5 6.6 8.5 82 1.5 SW 24 30 13 16 1018.0 1018.0 0.2
19/05:00pm 10.6 4.2 8.7 88 0.9 SW 32 41 17 22 1018.1 1018.1 0.2
19/04:30pm 11.9 7.3 8.0 77 1.9 SW 22 33 12 18 1018.1 1018.1 0.2
19/04:00pm 11.7 7.5 7.4 75 2.1 SW 19 30 10 16 1018.1 1018.1 0.0
19/03:30pm 11.7 8.0 8.0 78 1.8 WSW 17 32 9 17 1018.1 1018.1 0.0
19/03:00pm 11.3 7.1 7.4 77 1.9 WSW 19 30 10 16 1018.1 1018.1 0.0
19/02:30pm 11.6 7.5 8.8 83 1.4 W 20 32 11 17 1018.2 1018.2 0.0
19/02:00pm 11.8 8.0 7.7 76 2.0 WSW 17 30 9 16 1018.2 1018.2 0.0
19/01:30pm 11.8 7.5 7.1 73 2.3 SW 19 28 10 15 1018.1 1018.1 0.0
19/01:00pm 11.4 7.1 6.9 74 2.1 WSW 19 32 10 17 1017.9 1017.9 0.0
19/12:30pm 11.8 6.6 7.3 74 2.2 SW 24 30 13 16 1017.9 1017.9 0.0
19/12:00pm 11.0 6.1 7.1 77 1.9 SW 22 28 12 15 1017.9 1017.9 0.0
19/11:30am 11.3 6.5 7.4 77 1.9 SSW 22 32 12 17 1018.0 1018.0 0.0
19/11:00am 12.4 7.9 8.5 77 1.9 SSW 22 32 12 17 1017.6 1017.7 0.0
19/10:30am 11.6 5.4 6.3 70 2.5 SW 28 35 15 19 1017.6 1017.7 0.0
19/10:00am 11.1 5.0 6.6 74 2.1 SW 28 35 15 19 1017.4 1017.5 0.0
19/09:30am 10.6 5.0 7.3 80 1.6 SW 26 39 14 21 1017.2 1017.3 0.0
19/09:00am 10.8 4.5 7.5 80 1.6 SW 30 35 16 19 1017.1 1017.2 0.0
19/08:30am 10.7 5.3 7.8 82 1.4 SW 26 32 14 17 1016.9 1017.0 0.0
19/08:00am 10.2 4.7 7.6 84 1.2 SW 26 32 14 17 1016.8 1016.9 0.0
19/07:30am 10.4 5.0 8.0 85 1.2 SW 26 37 14 20 1016.4 1016.5 0.0
19/07:00am 10.3 6.3 8.2 87 1.0 W 19 26 10 14 1016.2 1016.3 0.0
19/06:30am 10.7 5.8 6.8 77 1.9 SW 22 35 12 19 1016.0 1016.1 0.0
19/06:00am 10.5 5.3 7.2 80 1.6 SW 24 30 13 16 1015.7 1015.8 0.0
19/05:30am 10.7 5.0 6.8 77 1.9 SW 26 35 14 19 1015.5 1015.6 0.0
19/05:00am 10.7 5.7 6.6 76 1.9 SW 22 28 12 15 1015.5 1015.6 0.0
19/04:30am 10.8 5.4 6.4 74 2.1 SW 24 30 13 16 1015.6 1015.7 0.0
19/04:00am 10.6 4.9 6.6 76 1.9 SW 26 35 14 19 1015.8 1015.9 0.0
19/03:30am 10.3 3.8 6.6 78 1.7 SW 30 37 16 20 1015.9 1016.0 0.0
19/03:00am 10.1 2.5 7.7 85 1.2 SW 37 43 20 23 1015.8 1015.9 0.0
19/02:30am 10.6 6.7 7.3 80 1.6 WSW 17 33 9 18 1015.7 1015.8 0.0
19/02:00am 10.5 4.8 8.3 86 1.1 SW 28 33 15 18 1015.9 1016.0 0.0
19/01:30am 10.8 5.2 8.6 86 1.1 SW 28 39 15 21 1016.2 1016.3 0.0
19/01:00am 10.7 5.5 9.0 89 0.8 SW 26 39 14 21 1016.2 1016.3 0.0
19/12:30am 11.0 7.1 9.3 89 0.9 WSW 20 33 11 18 1016.1 1016.2 0.0
19/12:00am 10.7 7.3 9.1 90 0.8 WSW 17 26 9 14 1016.2 1016.3 0.0
 
Date/Time
EDT
Temp
°C
App
Temp
°C
Dew
Point
°C
Rel
Hum
%
Delta-T
°C
Wind Press
QNH
hPa
Press
MSL
hPa
Rain since
9am
mm
Dir  Spd
km/h
Gust
km/h
Spd
kts
Gust
kts
18/11:30pm 10.7 7.0 9.3 91 0.7 WSW 19 30 10 16 1016.2 1016.3 0.0
18/11:00pm 11.0 7.2 8.9 87 1.0 WSW 19 35 10 19 1016.3 1016.4 0.0
18/10:34pm 11.1 7.4 10.2 94 0.5 WSW 20 32 11 17 1016.3 1016.4 0.0
18/10:30pm 10.9 7.3 10.0 94 0.5 WSW 19 32 10 17 1016.3 1016.4 0.0
18/10:20pm 10.9 7.4 10.1 95 0.4 W 19 30 10 16 1016.4 1016.5 0.0
18/10:00pm 10.9 7.2 10.0 94 0.5 W 20 26 11 14 1016.4 1016.5 0.0
18/09:30pm 10.8 6.6 9.6 92 0.6 W 22 33 12 18 1016.3 1016.4 0.0
18/09:08pm 10.4 4.2 9.3 93 0.6 WSW 32 52 17 28 1016.1 1016.2 0.0
18/09:00pm 11.6 6.6 9.7 88 1.0 W 26 39 14 21 1016.0 1016.1 0.0
18/08:30pm 11.4 6.0 9.5 88 1.0 W 28 39 15 21 1015.9 1016.0 0.0
18/08:00pm 11.3 6.1 9.0 86 1.1 W 26 39 14 21 1015.9 1016.0 0.0
18/07:30pm 11.5 6.0 9.1 85 1.2 W 28 43 15 23 1015.7 1015.8 0.0
18/07:00pm 11.5 6.4 9.2 86 1.2 W 26 43 14 23 1015.6 1015.7 0.0
18/06:30pm 11.5 5.9 8.7 83 1.4 W 28 43 15 23 1015.4 1015.5 0.0
18/06:03pm 11.5 6.0 9.1 85 1.2 W 28 46 15 25 1015.3 1015.4 0.0
18/06:00pm 11.5 6.4 9.1 85 1.2 W 26 46 14 25 1015.3 1015.4 0.0
18/05:30pm 11.6 6.8 8.8 83 1.4 W 24 39 13 21 1015.3 1015.4 0.0
18/05:00pm 11.8 7.8 9.0 83 1.4 WSW 20 35 11 19 1015.4 1015.5 0.0
18/04:30pm 11.9 6.7 8.7 81 1.6 W 26 39 14 21 1015.3 1015.4 0.0
18/04:00pm 11.8 6.9 8.5 80 1.6 WSW 24 43 13 23 1015.4 1015.5 0.0
18/03:30pm 12.0 7.5 8.5 79 1.7 WSW 22 44 12 24 1015.5 1015.6 0.0
18/03:00pm 12.1 8.0 8.6 79 1.7 WSW 20 39 11 21 1015.7 1015.8 0.0
18/02:30pm 12.4 8.3 8.7 78 1.9 WSW 20 35 11 19 1015.7 1015.8 0.0
18/02:00pm 12.3 7.8 8.6 78 1.8 WSW 22 43 12 23 1015.8 1015.9 0.0
18/01:30pm 12.1 6.8 8.6 79 1.7 SW 26 39 14 21 1015.7 1015.8 0.0
18/01:00pm 11.9 5.3 7.8 76 2.0 SW 32 39 17 21 1015.5 1015.6 0.0
18/12:30pm 11.8 4.8 8.5 80 1.6 SW 35 43 19 23 1015.4 1015.5 0.0
18/12:00pm 11.1 5.7 9.4 89 0.9 SW 28 37 15 20 1015.8 1015.9 0.0
18/11:30am 11.9 5.6 7.4 74 2.2 SW 30 41 16 22 1015.7 1015.8 0.0
18/11:00am 11.8 6.3 7.7 76 2.0 SSW 26 33 14 18 1015.7 1015.8 0.0
18/10:30am 11.8 4.8 8.6 81 1.6 SW 35 41 19 22 1015.7 1015.8 0.0
18/10:00am 11.9 5.2 7.4 74 2.2 SSW 32 44 17 24 1015.4 1015.5 0.0
18/09:30am 11.2 4.3 7.1 76 2.0 SW 33 44 18 24 1015.3 1015.4 0.0
18/09:00am 10.3 2.2 7.2 81 1.5 SW 39 48 21 26 1015.2 1015.3 1.8
18/08:55am 10.3 3.0 7.2 81 1.5 SW 35 48 19 26 1015.2 1015.3 1.8
18/08:30am 10.3 4.4 5.9 74 2.0 SSW 26 35 14 19 1014.9 1015.0 1.8

Other formats

Comma delimited format used in spreadsheet applications
http://www.bom.gov.au/fwo/IDT60801/IDT60801.95954.axf

JavaScript Object Notation format (JSON) in row-major order
http://www.bom.gov.au/fwo/IDT60801/IDT60801.95954.json

Data quality

Most of these data are generated automatically and are frequently updated. Quality checks on data are not normally performed. It is possible for incorrect values to appear. Refer to information at About Latest Weather Observations and please check the disclaimer before using these data.